Time;durP1;ratioP1;P1;durP2;ratioP2;P2;SDS_P1;SDS_P2;PMS_P1;PMS_P2;Temp;Humidity;BMP_temperature;BMP_pressure;BME280_temperature;BME280_humidity;BME280_pressure;Samples;Min_cycle;Max_cycle;Signal;HPM_P1;HPM_P2
2022/08/30 00:02:56;;;;;;;3.03;2.73;;;23.50;49.70;24.50;101114.00;;;;5047567;28;20173;-39
2022/08/30 00:05:22;;;;;;;3.00;2.70;;;23.50;49.80;24.50;101111.00;;;;5048468;28;20304;-38
2022/08/30 00:07:49;;;;;;;3.20;2.90;;;23.50;49.80;24.50;101116.00;;;;5048341;28;20167;-38
2022/08/30 00:10:14;;;;;;;4.00;2.80;;;23.50;49.80;24.40;101112.00;;;;5051498;28;20208;-38
2022/08/30 00:12:42;;;;;;;3.13;2.83;;;23.40;49.80;24.40;101104.00;;;;5055825;28;20170;-37
2022/08/30 00:15:09;;;;;;;3.57;2.87;;;23.50;49.90;24.40;101109.00;;;;5050700;28;20265;-39
2022/08/30 00:17:35;;;;;;;5.47;3.00;;;23.40;49.90;24.40;101113.00;;;;5049610;28;20181;-39
2022/08/30 00:20:01;;;;;;;3.97;2.80;;;23.40;50.00;24.40;101111.00;;;;5054861;28;20210;-39
2022/08/30 00:22:27;;;;;;;4.40;2.97;;;23.40;50.10;24.40;101107.00;;;;5048432;28;20242;-39
2022/08/30 00:24:53;;;;;;;3.57;2.80;;;23.40;50.10;24.40;101104.00;;;;5048279;28;20167;-39
2022/08/30 00:27:19;;;;;;;3.53;2.77;;;23.40;50.80;24.40;101110.00;;;;5048252;28;20174;-39
2022/08/30 00:29:45;;;;;;;3.97;3.10;;;23.40;50.10;24.30;101104.00;;;;5048020;28;20190;-39
2022/08/30 00:32:11;;;;;;;3.87;2.80;;;23.40;50.10;24.30;101125.00;;;;5047826;28;20787;-39
2022/08/30 00:34:37;;;;;;;3.10;2.80;;;23.40;50.10;24.40;101123.00;;;;5048011;28;20194;-39
2022/08/30 00:37:02;;;;;;;3.10;2.80;;;23.50;50.00;24.40;101134.00;;;;5047898;28;20186;-38
2022/08/30 00:39:28;;;;;;;4.37;3.00;;;23.50;49.80;24.40;101131.00;;;;5048913;28;20190;-38
2022/08/30 00:41:54;;;;;;;4.27;2.83;;;23.50;49.80;24.40;101127.00;;;;5048298;28;20245;-38
2022/08/30 00:44:20;;;;;;;5.37;2.80;;;23.60;49.70;24.40;101133.00;;;;5047992;28;20724;-38
2022/08/30 00:46:45;;;;;;;3.00;2.70;;;23.50;49.80;24.40;101128.00;;;;5047794;28;20224;-38
2022/08/30 00:49:11;;;;;;;2.70;2.50;;;23.50;50.50;24.40;101122.00;;;;5047505;28;20280;-39
2022/08/30 00:51:39;;;;;;;4.37;2.73;;;23.50;49.90;24.40;101131.00;;;;5046207;28;20185;-39
2022/08/30 00:54:05;;;;;;;3.57;2.60;;;23.50;50.20;24.40;101128.00;;;;5046522;28;20201;-38
2022/08/30 00:56:31;;;;;;;3.40;2.77;;;23.50;50.30;24.30;101126.00;;;;5046276;28;20226;-39
2022/08/30 00:58:58;;;;;;;3.60;2.67;;;23.50;50.30;24.30;101126.00;;;;5045954;28;20205;-40
2022/08/30 01:01:25;;;;;;;4.23;2.80;;;23.50;50.40;24.30;101136.00;;;;5046339;28;20194;-40
2022/08/30 01:03:50;;;;;;;3.67;2.73;;;23.50;50.50;24.30;101133.00;;;;5046037;28;20261;-38
2022/08/30 01:06:16;;;;;;;4.40;2.90;;;23.50;50.40;24.30;101150.00;;;;5046236;28;20270;-39
2022/08/30 01:08:44;;;;;;;3.27;2.50;;;23.50;50.40;24.30;101135.00;;;;5047136;28;20225;-39
2022/08/30 01:11:11;;;;;;;2.60;2.40;;;23.50;50.50;24.30;101136.00;;;;5047529;28;20177;-39
2022/08/30 01:13:36;;;;;;;3.50;2.67;;;23.50;50.50;24.30;101136.00;;;;5046986;28;20201;-38
2022/08/30 01:16:02;;;;;;;3.07;2.77;;;23.50;50.50;24.30;101145.00;;;;5046021;28;20249;-38
2022/08/30 01:18:28;;;;;;;3.23;2.80;;;23.50;50.60;24.30;101146.00;;;;5045791;28;20173;-39
2022/08/30 01:21:27;;;;;;;2.90;2.70;;;23.50;50.60;24.30;101136.00;;;;5046066;28;20177;-39
2022/08/30 01:23:55;;;;;;;2.97;2.67;;;23.50;50.70;24.30;101137.00;;;;5031246;28;20229;-39
2022/08/30 01:26:20;;;;;;;3.57;2.97;;;23.50;50.80;24.30;101126.00;;;;5046362;28;20174;-39
2022/08/30 01:28:47;;;;;;;2.93;2.67;;;23.50;50.80;24.20;101146.00;;;;5045737;28;20666;-39
2022/08/30 01:31:14;;;;;;;3.00;2.70;;;23.50;50.90;24.20;101132.00;;;;5046578;28;20178;-38
2022/08/30 01:33:39;;;;;;;3.47;2.80;;;23.50;50.90;24.20;101140.00;;;;5047351;28;20182;-39
2022/08/30 01:36:10;;;;;;;3.67;2.90;;;23.50;50.80;24.20;101140.00;;;;5047738;28;20671;-39
2022/08/30 01:38:47;;;;;;;2.90;2.60;;;23.50;50.90;24.20;101148.00;;;;5045829;28;20159;-39
2022/08/30 01:41:18;;;;;;;2.70;2.50;;;23.50;50.90;24.20;101144.00;;;;5047039;28;20162;-39
2022/08/30 01:43:44;;;;;;;3.17;2.87;;;23.50;50.90;24.20;101143.00;;;;5047138;28;20733;-39
2022/08/30 01:46:10;;;;;;;3.17;2.73;;;23.50;50.90;24.20;101146.00;;;;5047360;28;20178;-39
2022/08/30 01:48:37;;;;;;;3.30;2.50;;;23.50;50.90;24.20;101146.00;;;;5046706;28;20183;-40
2022/08/30 01:51:04;;;;;;;3.00;2.70;;;23.50;50.90;24.20;101149.00;;;;5047044;28;20308;-40
2022/08/30 01:53:30;;;;;;;3.20;2.70;;;23.50;50.90;24.20;101155.00;;;;5046992;28;20293;-39
2022/08/30 01:55:56;;;;;;;3.30;3.00;;;23.50;51.00;24.20;101096.00;;;;5046982;28;20187;-38
2022/08/30 01:58:22;;;;;;;4.20;2.70;;;23.50;51.00;24.20;101159.00;;;;5046782;28;20846;-39
2022/08/30 02:00:48;;;;;;;4.00;2.80;;;23.40;51.00;24.10;101155.00;;;;5046766;28;20197;-39
2022/08/30 02:03:14;;;;;;;3.67;2.73;;;23.40;51.10;24.10;101154.00;;;;5045543;28;20206;-38
2022/08/30 02:05:40;;;;;;;3.50;2.90;;;23.40;51.20;24.10;101160.00;;;;5045594;28;20182;-39
2022/08/30 02:08:05;;;;;;;2.60;2.40;;;23.40;51.20;24.10;101152.00;;;;5046763;28;20209;-39
2022/08/30 02:10:31;;;;;;;2.93;2.60;;;23.40;51.20;24.10;101151.00;;;;5046877;28;20849;-39
2022/08/30 02:12:58;;;;;;;2.90;2.60;;;23.40;51.20;24.10;101159.00;;;;5046865;28;20174;-38
2022/08/30 02:15:24;;;;;;;6.10;3.00;;;23.40;51.30;24.20;101154.00;;;;5046868;28;20182;-39
2022/08/30 02:17:50;;;;;;;4.90;2.80;;;23.40;51.20;24.20;101149.00;;;;5046886;28;20175;-39
2022/08/30 02:20:16;;;;;;;3.43;2.80;;;23.50;51.30;24.20;101154.00;;;;5046948;28;20682;-39
2022/08/30 02:22:42;;;;;;;4.97;2.90;;;23.40;51.20;24.20;101161.00;;;;5046863;28;20179;-38
2022/08/30 02:25:08;;;;;;;2.77;2.57;;;23.40;51.30;24.10;101163.00;;;;5047854;28;20250;-38
2022/08/30 02:27:33;;;;;;;3.13;2.83;;;23.40;51.30;24.10;101157.00;;;;5050434;28;20178;-39
2022/08/30 02:29:59;;;;;;;3.60;2.70;;;23.40;51.40;24.10;101152.00;;;;5050220;28;20190;-40
2022/08/30 02:32:25;;;;;;;3.30;2.87;;;23.40;51.50;24.10;101162.00;;;;5049215;28;20257;-39
2022/08/30 02:34:51;;;;;;;3.47;2.80;;;23.40;51.50;24.10;101164.00;;;;5050075;28;20171;-38
2022/08/30 02:37:17;;;;;;;3.67;2.67;;;23.40;51.60;24.00;101159.00;;;;5050177;28;20198;-39
2022/08/30 02:39:42;;;;;;;3.27;2.90;;;23.40;51.70;24.10;101153.00;;;;5050135;28;20670;-39
2022/08/30 02:42:08;;;;;;;2.60;2.40;;;23.40;51.70;24.00;101155.00;;;;5049999;28;20252;-38
2022/08/30 02:44:34;;;;;;;2.70;2.50;;;23.40;51.80;24.10;101160.00;;;;5049910;28;20182;-39
2022/08/30 02:46:59;;;;;;;4.60;2.90;;;23.40;51.80;24.00;101152.00;;;;5049817;28;20796;-39
2022/08/30 02:49:25;;;;;;;3.10;2.80;;;23.40;51.90;24.00;101150.00;;;;5049680;28;20201;-38
2022/08/30 02:51:51;;;;;;;3.30;2.80;;;23.40;51.90;24.00;101147.00;;;;5049715;28;20206;-38
2022/08/30 02:54:18;;;;;;;3.20;2.80;;;23.40;51.90;24.00;101142.00;;;;5049765;28;20227;-39
2022/08/30 02:56:47;;;;;;;3.10;2.80;;;23.30;51.90;24.00;101149.00;;;;5049667;28;20202;-39
2022/08/30 02:59:14;;;;;;;3.80;2.90;;;23.30;52.10;24.00;101152.00;;;;5049756;28;20194;-39
2022/08/30 03:01:40;;;;;;;3.30;2.73;;;23.30;52.10;24.00;101147.00;;;;5053986;28;20233;-38
2022/08/30 03:04:06;;;;;;;3.60;2.50;;;23.30;52.10;24.00;101136.00;;;;5051723;28;20273;-38
2022/08/30 03:06:32;;;;;;;3.00;2.70;;;23.30;52.10;23.90;101134.00;;;;5050186;28;20170;-38
2022/08/30 03:08:57;;;;;;;2.97;2.63;;;23.30;52.30;23.90;101134.00;;;;5049547;28;20855;-39
2022/08/30 03:11:23;;;;;;;3.97;2.90;;;23.20;52.10;24.00;101127.00;;;;5049461;28;20170;-38
2022/08/30 03:13:49;;;;;;;3.80;2.70;;;23.30;52.30;24.00;101137.00;;;;5049648;28;20544;-39
2022/08/30 03:16:15;;;;;;;3.10;2.67;;;23.20;52.20;23.90;101131.00;;;;5048075;28;20190;-39
2022/08/30 03:18:44;;;;;;;2.90;2.60;;;23.30;52.30;23.90;101134.00;;;;5049164;28;20181;-38
2022/08/30 03:21:11;;;;;;;4.33;2.90;;;23.20;52.30;23.90;101132.00;;;;5051568;28;20185;-39
2022/08/30 03:23:37;;;;;;;3.07;2.77;;;23.20;52.40;23.90;101126.00;;;;5056223;28;20167;-40
2022/08/30 03:26:03;;;;;;;3.10;2.80;;;23.20;52.50;23.90;101132.00;;;;5062173;28;20179;-41
2022/08/30 03:28:28;;;;;;;5.80;2.90;;;23.20;52.60;23.90;101133.00;;;;5061459;28;20182;-39
2022/08/30 03:30:55;;;;;;;5.13;2.80;;;23.20;52.90;23.90;101132.00;;;;5055993;28;20186;-39
2022/08/30 03:33:21;;;;;;;3.10;2.80;;;23.20;52.80;23.90;101123.00;;;;5051450;28;20368;-39
2022/08/30 03:35:46;;;;;;;3.90;2.80;;;23.20;52.80;23.90;101132.00;;;;5049465;28;20202;-38
2022/08/30 03:38:12;;;;;;;3.07;2.50;;;23.20;52.80;23.90;101130.00;;;;5048038;28;20565;-40
2022/08/30 03:40:38;;;;;;;3.10;2.80;;;23.20;52.50;23.90;101126.00;;;;5049328;28;20248;-38
2022/08/30 03:43:04;;;;;;;3.03;2.70;;;23.20;52.80;23.80;101115.00;;;;5049584;28;20205;-39
2022/08/30 03:45:30;;;;;;;3.47;2.87;;;23.20;52.80;23.90;101113.00;;;;5049310;28;20182;-40
2022/08/30 03:47:56;;;;;;;5.73;5.17;;;23.20;52.80;23.80;101118.00;;;;5049258;28;20180;-39
2022/08/30 03:50:21;;;;;;;4.40;3.93;;;23.20;52.80;23.80;101109.00;;;;5049377;28;20265;-38
2022/08/30 03:52:47;;;;;;;5.90;3.77;;;23.20;52.80;23.70;101116.00;;;;5049172;28;20436;-38
2022/08/30 03:55:13;;;;;;;4.50;3.10;;;23.20;52.80;23.80;101118.00;;;;5048787;28;20216;-39
2022/08/30 03:57:40;;;;;;;3.60;3.30;;;23.10;52.80;23.80;101126.00;;;;5048557;28;20182;-38
2022/08/30 04:00:06;;;;;;;3.83;3.03;;;23.10;52.80;23.80;101121.00;;;;5049115;28;20666;-39
2022/08/30 04:02:32;;;;;;;5.23;2.90;;;23.10;52.80;23.80;101122.00;;;;5049801;28;20667;-39
2022/08/30 04:04:58;;;;;;;3.97;3.20;;;23.10;52.80;23.80;101120.00;;;;5056878;28;20174;-38
2022/08/30 04:07:24;;;;;;;3.63;3.20;;;23.10;52.80;23.80;101110.00;;;;5047912;28;20178;-38
2022/08/30 04:09:49;;;;;;;6.40;3.00;;;23.10;53.00;23.70;101111.00;;;;5048527;28;20214;-40
2022/08/30 04:12:15;;;;;;;5.33;3.20;;;23.00;53.00;23.70;101114.00;;;;5046805;28;20170;-41
2022/08/30 04:14:41;;;;;;;5.60;3.17;;;23.00;53.00;23.70;101121.00;;;;5046941;28;20165;-39
2022/08/30 04:17:07;;;;;;;4.20;3.13;;;23.10;53.00;23.70;101124.00;;;;5055327;28;20193;-38
2022/08/30 04:19:32;;;;;;;3.33;3.03;;;23.00;52.90;23.70;101117.00;;;;5049865;28;20244;-39
2022/08/30 04:21:58;;;;;;;3.53;2.97;;;23.10;53.00;23.70;101109.00;;;;5048215;28;20174;-39
2022/08/30 04:24:24;;;;;;;3.30;3.00;;;23.00;52.80;23.70;101110.00;;;;5048104;28;20810;-38
2022/08/30 04:26:50;;;;;;;3.90;3.03;;;23.00;52.90;23.70;101116.00;;;;5048056;28;20729;-39
2022/08/30 04:29:16;;;;;;;3.80;3.13;;;23.00;52.80;23.70;101125.00;;;;5048246;28;20202;-39
2022/08/30 04:31:43;;;;;;;3.70;3.00;;;23.00;53.50;23.70;101127.00;;;;5048010;28;20183;-39
2022/08/30 04:34:11;;;;;;;4.63;3.07;;;23.00;52.90;23.70;101130.00;;;;5047600;28;20181;-39
2022/08/30 04:36:36;;;;;;;4.47;2.97;;;23.00;53.50;23.70;101124.00;;;;5047269;28;20190;-38
2022/08/30 04:39:03;;;;;;;3.87;3.03;;;23.00;52.80;23.70;101131.00;;;;5047628;28;20190;-38
2022/08/30 04:41:28;;;;;;;3.13;2.80;;;23.00;53.10;23.70;101133.00;;;;5047871;28;20193;-38
2022/08/30 04:43:54;;;;;;;7.57;3.13;;;23.00;53.00;23.70;101134.00;;;;5047357;28;20158;-39
2022/08/30 04:46:20;;;;;;;4.60;3.10;;;23.00;53.20;23.70;101143.00;;;;5046885;28;20257;-39
2022/08/30 04:48:46;;;;;;;3.10;2.80;;;23.00;53.10;23.70;101143.00;;;;5046731;28;20259;-38
2022/08/30 04:51:14;;;;;;;4.87;3.30;;;23.00;53.10;23.70;101144.00;;;;5047978;28;20170;-38
2022/08/30 04:53:40;;;;;;;4.30;3.10;;;23.00;53.10;23.60;101142.00;;;;5047723;28;20181;-39
2022/08/30 04:56:15;;;;;;;3.60;3.00;;;23.00;53.10;23.60;101142.00;;;;5047473;28;20614;-39
2022/08/30 04:58:41;;;;;;;4.53;3.20;;;22.90;53.10;23.60;101139.00;;;;5048154;28;20172;-38
2022/08/30 05:01:15;;;;;;;5.77;2.97;;;22.90;53.20;23.60;101143.00;;;;5047208;28;20962;-39
2022/08/30 05:03:41;;;;;;;5.97;3.30;;;22.90;53.30;23.60;101142.00;;;;5047439;28;20531;-39
2022/08/30 05:06:09;;;;;;;3.73;3.13;;;22.80;53.40;23.50;101142.00;;;;5047057;28;20178;-39
2022/08/30 05:08:35;;;;;;;3.60;3.07;;;22.80;53.60;23.50;101151.00;;;;5047025;28;20181;-38
2022/08/30 05:11:03;;;;;;;3.67;3.10;;;22.80;54.20;23.50;101155.00;;;;5047342;28;20241;-38
2022/08/30 05:13:29;;;;;;;4.80;3.10;;;22.80;53.50;23.50;101156.00;;;;5047549;28;20270;-39
2022/08/30 05:15:55;;;;;;;4.33;3.10;;;22.80;53.50;23.50;101156.00;;;;5046892;28;20269;-38
2022/08/30 05:18:21;;;;;;;4.63;3.17;;;22.80;54.10;23.50;101156.00;;;;5048139;28;20175;-39
2022/08/30 05:20:46;;;;;;;4.23;3.10;;;22.70;53.50;23.50;101163.00;;;;5048000;28;20197;-38
2022/08/30 05:23:12;;;;;;;4.60;3.30;;;22.70;53.60;23.40;101163.00;;;;5048826;28;20216;-40
2022/08/30 05:25:39;;;;;;;3.20;2.90;;;22.70;53.70;23.40;101173.00;;;;5048968;28;20182;-40
2022/08/30 05:28:05;;;;;;;4.17;3.10;;;22.70;53.80;23.40;101171.00;;;;5046357;28;20708;-39
2022/08/30 05:30:32;;;;;;;3.37;2.93;;;22.70;53.80;23.40;101180.00;;;;5045021;28;20193;-39
2022/08/30 05:32:58;;;;;;;3.20;2.90;;;22.70;53.80;23.40;101176.00;;;;5046043;28;20181;-39
2022/08/30 05:35:24;;;;;;;3.77;3.40;;;22.70;53.80;23.40;101175.00;;;;5047060;28;20190;-39
2022/08/30 05:37:50;;;;;;;3.30;2.90;;;22.70;54.00;23.40;101170.00;;;;5047256;28;20166;-38
2022/08/30 05:40:18;;;;;;;3.77;3.37;;;22.60;54.10;23.20;101131.00;;;;4976099;28;20197;-40
2022/08/30 05:42:44;;;;;;;4.10;3.27;;;22.60;54.00;23.30;101166.00;;;;5021582;28;20174;-38
2022/08/30 05:45:11;;;;;;;4.43;3.17;;;22.60;54.40;23.30;101166.00;;;;5066861;28;20350;-39
2022/08/30 05:47:37;;;;;;;4.40;3.40;;;22.60;54.40;23.30;101160.00;;;;5082689;28;20765;-39
2022/08/30 05:50:05;;;;;;;3.30;3.00;;;22.60;54.50;23.30;101156.00;;;;5087026;28;20189;-39
2022/08/30 05:52:35;;;;;;;4.10;3.70;;;22.60;54.40;23.20;101176.00;;;;5087391;28;20217;-38
2022/08/30 05:55:03;;;;;;;5.00;3.13;;;22.50;54.40;23.20;101157.00;;;;5089493;28;20177;-37
2022/08/30 05:57:34;;;;;;;4.23;3.40;;;22.60;54.50;23.20;101153.00;;;;5087372;28;20201;-38
2022/08/30 06:00:01;;;;;;;3.43;2.90;;;22.50;54.50;23.20;101157.00;;;;5070279;28;20629;-39
2022/08/30 06:02:27;;;;;;;3.33;3.03;;;22.40;54.60;23.20;101166.00;;;;5070602;28;20252;-39
2022/08/30 06:04:53;;;;;;;3.30;3.00;;;22.40;54.60;23.20;101161.00;;;;5070682;28;20605;-38
2022/08/30 06:07:19;;;;;;;4.00;3.20;;;22.50;54.70;23.20;101167.00;;;;5070458;28;20196;-38
2022/08/30 06:09:44;;;;;;;3.40;3.00;;;22.50;55.10;23.10;101158.00;;;;5070546;28;20212;-38
2022/08/30 06:12:10;;;;;;;4.03;3.10;;;22.40;54.80;23.10;101164.00;;;;5070754;28;20184;-40
2022/08/30 06:14:37;;;;;;;3.93;3.20;;;22.40;54.80;23.10;101159.00;;;;5070592;28;20182;-39
2022/08/30 06:17:03;;;;;;;3.50;3.20;;;22.40;54.80;23.00;101166.00;;;;5070132;28;20228;-39
2022/08/30 06:19:29;;;;;;;3.47;2.83;;;22.40;54.90;23.00;101161.00;;;;5070475;28;20247;-39
2022/08/30 06:21:55;;;;;;;4.40;3.47;;;22.40;54.80;23.00;101164.00;;;;5076861;28;20169;-40
2022/08/30 06:24:21;;;;;;;4.43;3.30;;;22.40;54.50;23.00;101166.00;;;;5071850;28;20169;-39
2022/08/30 06:26:46;;;;;;;3.83;3.23;;;22.40;54.80;23.00;101166.00;;;;5070787;28;20170;-39
2022/08/30 06:29:18;;;;;;;3.60;3.10;;;22.40;55.00;23.00;101165.00;;;;5069973;28;20196;-39
2022/08/30 06:31:44;;;;;;;5.23;3.60;;;22.40;55.10;22.90;101159.00;;;;5072123;28;20181;-39
2022/08/30 06:34:09;;;;;;;3.80;3.23;;;22.40;55.00;22.90;101158.00;;;;5072504;28;20181;-38
2022/08/30 06:36:35;;;;;;;4.57;3.20;;;22.40;55.00;22.70;101154.00;;;;5069703;28;20220;-39
2022/08/30 06:39:01;;;;;;;4.37;3.30;;;22.40;55.20;22.90;101156.00;;;;5070198;28;20759;-39
2022/08/30 06:41:34;;;;;;;3.87;3.10;;;22.40;55.20;22.90;101151.00;;;;5015941;28;20734;-39
2022/08/30 06:44:01;;;;;;;4.33;3.30;;;22.40;55.70;22.90;101155.00;;;;5094412;28;20217;-40
2022/08/30 06:46:31;;;;;;;4.53;3.50;;;22.40;54.90;22.90;101158.00;;;;5091992;28;20196;-39
2022/08/30 06:48:57;;;;;;;3.80;3.40;;;22.40;55.30;22.90;101165.00;;;;5076101;28;20233;-39
2022/08/30 06:51:29;;;;;;;3.30;3.00;;;22.30;55.10;22.80;101160.00;;;;5069356;28;20235;-38
2022/08/30 06:53:54;;;;;;;4.37;3.30;;;22.30;55.30;22.80;101164.00;;;;5070588;28;20180;-39
2022/08/30 06:56:20;;;;;;;3.73;3.40;;;22.20;55.00;22.80;101156.00;;;;5068741;28;20190;-39
2022/08/30 06:58:46;;;;;;;5.20;3.50;;;22.30;55.20;22.80;101149.00;;;;5071809;28;20201;-39
2022/08/30 07:01:22;;;;;;;3.77;3.37;;;22.30;55.00;22.80;101149.00;;;;5071892;28;20185;-39
2022/08/30 07:03:48;;;;;;;4.00;3.30;;;22.20;55.00;22.80;101151.00;;;;5070364;28;20160;-39
2022/08/30 07:06:13;;;;;;;3.77;3.17;;;22.10;54.90;22.80;101156.00;;;;5070101;28;20173;-39
2022/08/30 07:08:39;;;;;;;4.23;3.20;;;22.20;54.90;22.90;101158.00;;;;5069602;28;20302;-38
2022/08/30 07:11:06;;;;;;;5.73;3.13;;;22.20;54.80;22.90;101148.00;;;;5068947;28;20184;-39
2022/08/30 07:13:32;;;;;;;3.30;3.00;;;22.20;54.90;22.90;101153.00;;;;5068446;28;20224;-39
2022/08/30 07:15:58;;;;;;;3.30;3.00;;;22.30;54.80;22.90;101152.00;;;;5069145;28;20220;-39
2022/08/30 07:21:11;;;;;;;4.77;3.63;;;22.30;54.80;22.90;101147.00;;;;5069227;28;20690;-39
2022/08/30 07:23:37;;;;;;;3.70;3.17;;;22.30;54.90;23.00;101153.00;;;;5068874;28;20212;-39
2022/08/30 07:26:08;;;;;;;3.27;3.07;;;22.30;54.70;23.00;101165.00;;;;5068359;28;20205;-38
2022/08/30 07:28:36;;;;;;;3.67;3.30;;;22.30;54.70;23.00;101161.00;;;;5068753;28;20166;-38
2022/08/30 07:31:02;;;;;;;5.83;3.20;;;22.40;54.80;23.00;101163.00;;;;5069118;28;20649;-39
2022/08/30 07:33:28;;;;;;;3.80;3.40;;;22.40;54.60;23.00;101166.00;;;;5069628;28;20173;-38
2022/08/30 07:35:54;;;;;;;7.20;3.37;;;22.40;54.70;23.00;101166.00;;;;5068279;28;20289;-38
2022/08/30 07:38:20;;;;;;;4.00;3.20;;;22.40;54.70;23.00;101167.00;;;;5069822;28;20253;-38
2022/08/30 07:40:46;;;;;;;4.03;3.10;;;22.40;54.70;23.00;101166.00;;;;5020334;28;20200;-39
2022/08/30 07:43:11;;;;;;;3.90;3.00;;;22.40;54.70;23.00;101162.00;;;;5071131;28;20166;-39
2022/08/30 07:45:38;;;;;;;3.83;3.30;;;22.40;54.60;23.00;101159.00;;;;5089838;28;20667;-39
2022/08/30 07:48:06;;;;;;;3.80;3.20;;;22.50;54.80;23.00;101160.00;;;;5092960;28;20831;-38
2022/08/30 07:50:32;;;;;;;4.17;3.10;;;22.50;55.00;23.10;101164.00;;;;5089433;28;20197;-39
2022/08/30 07:52:58;;;;;;;3.47;3.17;;;22.50;54.80;23.00;101169.00;;;;5089155;28;20177;-39
2022/08/30 07:55:23;;;;;;;4.20;3.47;;;22.50;55.10;23.10;101169.00;;;;5088845;28;20200;-38
2022/08/30 07:57:49;;;;;;;3.97;3.10;;;22.50;54.90;23.10;101165.00;;;;5089182;28;20687;-38
2022/08/30 08:00:15;;;;;;;3.37;3.07;;;22.60;55.10;23.10;101176.00;;;;5089187;28;20181;-38
2022/08/30 08:02:41;;;;;;;5.13;3.40;;;22.60;55.10;23.20;101165.00;;;;5088485;28;20180;-38
2022/08/30 08:05:08;;;;;;;3.77;3.10;;;22.50;55.10;23.10;101166.00;;;;5088424;28;20180;-38
2022/08/30 08:07:34;;;;;;;4.47;3.27;;;22.50;55.10;23.20;101103.00;;;;5088251;28;20173;-38
2022/08/30 08:10:00;;;;;;;4.57;3.20;;;22.50;55.20;23.20;101172.00;;;;5088405;28;20200;-38
2022/08/30 08:12:26;;;;;;;5.57;3.17;;;22.50;55.10;23.20;101177.00;;;;5088228;28;20258;-39
2022/08/30 08:14:52;;;;;;;6.37;3.43;;;22.50;55.10;23.00;101170.00;;;;5088471;28;20173;-38
2022/08/30 08:17:19;;;;;;;4.47;3.40;;;22.60;54.50;23.10;101165.00;;;;5095514;28;20217;-38
2022/08/30 08:19:44;;;;;;;5.50;3.20;;;22.50;54.00;23.20;101174.00;;;;5097757;28;20269;-38
2022/08/30 08:22:10;;;;;;;6.40;3.17;;;22.50;53.70;23.20;101171.00;;;;5100224;28;20216;-38
2022/08/30 08:24:36;;;;;;;5.13;3.20;;;22.60;53.40;23.20;101172.00;;;;5102099;28;20207;-38
2022/08/30 08:27:02;;;;;;;4.93;3.07;;;22.60;53.40;23.30;101173.00;;;;5097412;28;20257;-39
2022/08/30 08:29:28;;;;;;;6.63;2.90;;;22.60;53.60;23.30;101176.00;;;;5088398;28;20279;-38
2022/08/30 08:31:55;;;;;;;4.70;3.07;;;22.60;53.40;23.30;101175.00;;;;5088094;28;20173;-39
2022/08/30 08:34:22;;;;;;;4.47;3.20;;;22.70;53.30;23.30;101170.00;;;;5088276;28;20204;-38
2022/08/30 08:36:49;;;;;;;5.40;3.13;;;22.70;53.30;23.30;101170.00;;;;5068004;28;20231;-39
2022/08/30 08:39:15;;;;;;;3.67;3.13;;;22.70;53.20;23.30;101172.00;;;;5067784;28;20185;-39
2022/08/30 08:42:16;;;;;;;5.33;3.10;;;22.70;53.30;23.40;101166.00;;;;4996594;28;20683;-39
2022/08/30 08:45:03;;;;;;;4.40;3.30;;;22.70;53.00;23.40;101172.00;;;;5066695;28;20172;-39
2022/08/30 08:47:55;;;;;;;4.07;3.07;;;22.80;53.00;23.40;101164.00;;;;5066036;28;20736;-38
2022/08/30 08:50:20;;;;;;;4.50;3.03;;;22.80;52.60;23.40;101167.00;;;;5066128;28;20197;-39
2022/08/30 08:55:46;;;;;;;3.90;2.93;;;22.80;53.00;23.40;101168.00;;;;5065943;28;20232;-39
2022/08/30 08:58:31;;;;;;;2.93;2.70;;;22.80;52.60;23.50;101161.00;;;;5067891;28;20164;-38
2022/08/30 09:00:57;;;;;;;4.07;3.13;;;22.80;52.60;23.50;101160.00;;;;5070129;28;20610;-39
2022/08/30 09:03:25;;;;;;;3.37;3.00;;;22.80;52.50;23.50;101161.00;;;;5087340;28;20187;-39
2022/08/30 09:05:52;;;;;;;3.60;2.70;;;22.80;52.80;23.50;101154.00;;;;5087394;28;20208;-38
2022/08/30 09:08:19;;;;;;;5.00;3.00;;;22.80;52.70;23.50;101159.00;;;;5086179;28;20661;-39
2022/08/30 09:11:00;;;;;;;3.40;3.10;;;22.80;52.40;23.50;101162.00;;;;5086455;28;20216;-40
2022/08/30 09:13:26;;;;;;;4.13;2.90;;;22.80;52.50;23.50;101159.00;;;;5086170;28;20214;-39
2022/08/30 09:15:53;;;;;;;3.53;3.00;;;22.90;52.60;23.50;101159.00;;;;5087036;28;20664;-38
2022/08/30 09:18:18;;;;;;;3.90;2.80;;;23.00;52.70;23.60;101156.00;;;;5007176;28;20681;-41
2022/08/30 09:20:47;;;;;;;3.73;2.90;;;22.90;52.30;23.60;101156.00;;;;5067151;28;20185;-40
2022/08/30 09:23:26;;;;;;;4.10;2.80;;;23.00;52.60;23.60;101153.00;;;;5067480;28;20260;-38
2022/08/30 09:25:56;;;;;;;4.80;3.07;;;23.00;52.30;23.60;101149.00;;;;5067707;28;20661;-38
2022/08/30 09:28:25;;;;;;;3.40;2.60;;;23.10;51.50;23.70;101148.00;;;;5066244;28;20658;-39
2022/08/30 09:31:25;;;;;;;4.70;3.17;;;23.10;52.00;23.70;101154.00;;;;5065507;28;20280;-39
2022/08/30 09:34:16;;;;;;;3.63;2.90;;;23.10;52.10;23.70;101156.00;;;;5067426;28;20196;-38
2022/08/30 09:36:50;;;;;;;6.10;3.10;;;23.20;51.60;23.70;101161.00;;;;5069634;28;20562;-39
2022/08/30 09:39:30;;;;;;;20.37;4.30;;;23.20;53.30;23.70;101155.00;;;;5070845;28;20670;-39
2022/08/30 09:42:12;;;;;;;6.97;3.43;;;23.20;54.60;23.80;101153.00;;;;5069784;28;20236;-39
2022/08/30 09:44:38;;;;;;;7.43;3.60;;;23.20;53.40;23.80;101149.00;;;;5061287;28;20173;-39
2022/08/30 09:47:05;;;;;;;6.83;3.20;;;23.20;52.60;23.80;101139.00;;;;5050709;28;20174;-39
2022/08/30 09:49:39;;;;;;;6.07;3.13;;;23.30;52.90;23.80;101133.00;;;;5050560;28;20202;-38
2022/08/30 09:52:40;;;;;;;6.47;3.47;;;23.40;51.90;23.90;101137.00;;;;5052925;28;20155;-38
2022/08/30 09:55:46;;;;;;;5.87;3.40;;;23.40;52.00;23.90;101137.00;;;;5063726;28;20177;-42
2022/08/30 09:59:01;;;;;;;3.23;2.93;;;23.40;52.10;23.90;101139.00;;;;5064020;28;20715;-42
2022/08/30 10:01:31;;;;;;;6.43;3.20;;;23.40;52.40;23.90;101140.00;;;;5070085;28;20709;-42
2022/08/30 10:04:33;;;;;;;4.73;3.10;;;23.40;53.00;24.00;101135.00;;;;5061521;28;20174;-42
2022/08/30 10:07:19;;;;;;;3.60;2.97;;;23.40;52.60;24.00;101134.00;;;;5076763;28;20188;-42
2022/08/30 10:10:02;;;;;;;5.40;3.10;;;23.40;52.20;23.60;101124.00;;;;5071384;28;20622;-43
2022/08/30 10:12:49;;;;;;;4.07;3.07;;;23.40;52.00;24.00;101135.00;;;;5069801;28;20169;-42
2022/08/30 10:15:31;;;;;;;4.40;2.73;;;23.40;52.40;24.00;101127.00;;;;5069375;28;20607;-42
2022/08/30 10:18:14;;;;;;;3.57;2.90;;;23.40;52.00;24.10;101131.00;;;;5009134;28;20287;-41
2022/08/30 10:21:18;;;;;;;3.63;2.90;;;23.40;51.90;24.10;101121.00;;;;5053135;28;20197;-42
2022/08/30 10:23:57;;;;;;;6.13;3.20;;;23.40;52.00;24.10;101120.00;;;;5069367;28;20248;-43
2022/08/30 10:26:33;;;;;;;3.27;2.97;;;23.40;53.20;24.10;101142.00;;;;5053897;28;20150;-42
2022/08/30 10:29:18;;;;;;;6.80;3.10;;;23.50;53.30;24.10;101129.00;;;;5068945;28;20196;-41
2022/08/30 10:31:52;;;;;;;5.83;3.60;;;23.50;53.10;24.10;101132.00;;;;5053902;28;20176;-42
2022/08/30 10:34:38;;;;;;;3.70;3.13;;;23.50;53.10;24.20;101138.00;;;;5053258;28;20249;-42
2022/08/30 10:37:23;;;;;;;4.63;3.23;;;23.60;53.50;24.20;101136.00;;;;5034502;28;20555;-41
2022/08/30 10:39:59;;;;;;;5.23;3.10;;;23.60;53.50;24.20;101129.00;;;;5050349;28;20190;-42
2022/08/30 10:42:31;;;;;;;6.83;3.30;;;23.60;53.90;24.20;101135.00;;;;5049927;28;20193;-42
2022/08/30 10:45:10;;;;;;;7.37;3.20;;;23.60;53.70;24.30;101133.00;;;;5048710;28;20170;-42
2022/08/30 10:48:06;;;;;;;3.90;3.23;;;23.70;54.20;24.30;101128.00;;;;5048928;28;20186;-41
2022/08/30 10:50:37;;;;;;;4.07;3.57;;;23.70;54.10;24.30;101126.00;;;;5048418;28;20194;-43
2022/08/30 10:53:14;;;;;;;3.50;3.20;;;23.70;54.10;24.30;101132.00;;;;5048895;28;20190;-43
2022/08/30 10:55:54;;;;;;;3.70;3.10;;;23.70;54.20;24.40;101127.00;;;;5049502;28;20170;-43
2022/08/30 10:58:20;;;;;;;3.50;3.13;;;23.80;54.60;24.40;101130.00;;;;5048103;28;20204;-42
2022/08/30 11:01:26;;;;;;;3.40;3.00;;;23.80;54.50;24.50;101118.00;;;;5049618;28;20194;-42
2022/08/30 11:04:27;;;;;;;3.47;3.03;;;23.80;54.30;24.50;101130.00;;;;5048467;28;20162;-42